地図

経路データ

SID SEASON NUMBER BASIN SUBBASIN NAME ISO_TIME NATURE LAT LON WMO_WIND WMO_PRES WMO_AGENCY TRACK_TYPE DIST2LAND LANDFALL IFLAG USA_AGENCY USA_ATCF_ID USA_LAT USA_LON USA_RECORD USA_STATUS USA_WIND USA_PRES USA_SSHS USA_R34_NE USA_R34_SE USA_R34_SW USA_R34_NW USA_R50_NE USA_R50_SE USA_R50_SW USA_R50_NW USA_R64_NE USA_R64_SE USA_R64_SW USA_R64_NW USA_POCI USA_ROCI USA_RMW USA_EYE TOKYO_LAT TOKYO_LON TOKYO_GRADE TOKYO_WIND TOKYO_PRES TOKYO_R50_DIR TOKYO_R50_LONG TOKYO_R50_SHORT TOKYO_R30_DIR TOKYO_R30_LONG TOKYO_R30_SHORT TOKYO_LAND CMA_LAT CMA_LON CMA_CAT CMA_WIND CMA_PRES HKO_LAT HKO_LON HKO_CAT HKO_WIND HKO_PRES NEWDELHI_LAT NEWDELHI_LON NEWDELHI_GRADE NEWDELHI_WIND NEWDELHI_PRES NEWDELHI_CI NEWDELHI_DP NEWDELHI_POCI REUNION_LAT REUNION_LON REUNION_TYPE REUNION_WIND REUNION_PRES REUNION_TNUM REUNION_CI REUNION_RMW REUNION_R34_NE REUNION_R34_SE REUNION_R34_SW REUNION_R34_NW REUNION_R50_NE REUNION_R50_SE REUNION_R50_SW REUNION_R50_NW REUNION_R64_NE REUNION_R64_SE REUNION_R64_SW REUNION_R64_NW BOM_LAT BOM_LON BOM_TYPE BOM_WIND BOM_PRES BOM_TNUM BOM_CI BOM_RMW BOM_R34_NE BOM_R34_SE BOM_R34_SW BOM_R34_NW BOM_R50_NE BOM_R50_SE BOM_R50_SW BOM_R50_NW BOM_R64_NE BOM_R64_SE BOM_R64_SW BOM_R64_NW BOM_ROCI BOM_POCI BOM_EYE BOM_POS_METHOD BOM_PRES_METHOD NADI_LAT NADI_LON NADI_CAT NADI_WIND NADI_PRES WELLINGTON_LAT WELLINGTON_LON WELLINGTON_WIND WELLINGTON_PRES DS824_LAT DS824_LON DS824_STAGE DS824_WIND DS824_PRES TD9636_LAT TD9636_LON TD9636_STAGE TD9636_WIND TD9636_PRES TD9635_LAT TD9635_LON TD9635_WIND TD9635_PRES TD9635_ROCI NEUMANN_LAT NEUMANN_LON NEUMANN_CLASS NEUMANN_WIND NEUMANN_PRES MLC_LAT MLC_LON MLC_CLASS MLC_WIND MLC_PRES USA_GUST BOM_GUST BOM_GUST_PER REUNION_GUST REUNION_GUST_PER USA_SEAHGT USA_SEARAD_NE USA_SEARAD_SE USA_SEARAD_SW USA_SEARAD_NW STORM_SPEED STORM_DIR
1988323N15286 1988 107 NA CS KEITH 1988-11-17 18:00:00 TS 14.9000 -74.3000 30 1008 hurdat_atl main 349 349 O_____________ hurdat_atl AL121988 14.9000 -74.3000 TD 30 1008 -1 12 276
1988323N15286 1988 107 NA CS KEITH 1988-11-17 21:00:00 TS 14.9605 -74.9249 main 352 333 P_____________ AL121988 14.9605 -74.9249 TD 30 1008 -1 12 275
1988323N15286 1988 107 NA CS KEITH 1988-11-18 00:00:00 TS 15.0000 -75.5000 30 1008 hurdat_atl main 333 325 O_____________ hurdat_atl AL121988 15.0000 -75.5000 TD 30 1008 -1 10 273
1988323N15286 1988 107 NA CS KEITH 1988-11-18 03:00:00 TS 15.0072 -76.0001 main 325 311 P_____________ AL121988 15.0072 -76.0001 TD 30 1008 -1 10 270
1988323N15286 1988 107 NA CS KEITH 1988-11-18 06:00:00 TS 15.0000 -76.5000 30 1008 hurdat_atl main 311 302 O_____________ hurdat_atl AL121988 15.0000 -76.5000 TD 30 1008 -1 10 270
1988323N15286 1988 107 NA CS KEITH 1988-11-18 09:00:00 TS 14.9999 -77.0775 main 302 302 P_____________ AL121988 14.9999 -77.0775 TD 30 1008 -1 12 270
1988323N15286 1988 107 NA CS KEITH 1988-11-18 12:00:00 TS 15.0000 -77.7000 30 1008 hurdat_atl main 306 306 O_____________ hurdat_atl AL121988 15.0000 -77.7000 TD 30 1008 -1 13 270
1988323N15286 1988 107 NA CS KEITH 1988-11-18 15:00:00 TS 15.0001 -78.3725 main 328 328 P_____________ AL121988 15.0001 -78.3725 TD 30 1008 -1 13 270
1988323N15286 1988 107 NA CS KEITH 1988-11-18 18:00:00 TS 15.0000 -79.0000 30 1008 hurdat_atl main 352 352 O_____________ hurdat_atl AL121988 15.0000 -79.0000 TD 30 1008 -1 11 270
1988323N15286 1988 107 NA CS KEITH 1988-11-18 21:00:00 TS 14.9924 -79.5100 main 376 343 P_____________ AL121988 14.9924 -79.5100 TD 30 1007 -1 9 270
1988323N15286 1988 107 NA CS KEITH 1988-11-19 00:00:00 TS 15.0000 -79.9000 30 1007 hurdat_atl main 343 322 O_____________ hurdat_atl AL121988 15.0000 -79.9000 TD 30 1007 -1 6 275
1988323N15286 1988 107 NA CS KEITH 1988-11-19 03:00:00 TS 15.0423 -80.1575 main 311 290 P_____________ AL121988 15.0423 -80.1575 TD 30 1007 -1 5 282
1988323N15286 1988 107 NA CS KEITH 1988-11-19 06:00:00 TS 15.1000 -80.4000 30 1007 hurdat_atl main 290 247 O_____________ hurdat_atl AL121988 15.1000 -80.4000 TD 30 1007 -1 6 279
1988323N15286 1988 107 NA CS KEITH 1988-11-19 09:00:00 TS 15.1351 -80.7926 main 247 205 P_____________ AL121988 15.1351 -80.7926 TD 30 1007 -1 8 277
1988323N15286 1988 107 NA CS KEITH 1988-11-19 12:00:00 TS 15.2000 -81.2000 30 1007 hurdat_atl main 205 175 O_____________ hurdat_atl AL121988 15.2000 -81.2000 TD 30 1007 -1 7 286
1988323N15286 1988 107 NA CS KEITH 1988-11-19 15:00:00 TS 15.3348 -81.5000 main 175 150 P_____________ AL121988 15.3348 -81.5000 TD 30 1006 -1 7 297
1988323N15286 1988 107 NA CS KEITH 1988-11-19 18:00:00 TS 15.5000 -81.8000 30 1006 hurdat_atl main 150 117 O_____________ hurdat_atl AL121988 15.5000 -81.8000 TD 30 1006 -1 7 294
1988323N15286 1988 107 NA CS KEITH 1988-11-19 21:00:00 TS 15.6350 -82.1851 main 117 101 P_____________ AL121988 15.6350 -82.1851 TD 30 1005 -1 8 291
1988323N15286 1988 107 NA CS KEITH 1988-11-20 00:00:00 TS 15.8000 -82.6000 30 1005 hurdat_atl main 102 79 O_____________ hurdat_atl AL121988 15.8000 -82.6000 TD 30 1005 -1 8 293
1988323N15286 1988 107 NA CS KEITH 1988-11-20 03:00:00 TS 15.9598 -82.9782 main 89 84 P_____________ AL121988 15.9598 -82.9782 TD 32 1004 -1 9 303
1988323N15286 1988 107 NA CS KEITH 1988-11-20 06:00:00 TS 16.3000 -83.4000 35 1004 hurdat_atl main 101 101 O_____________ hurdat_atl AL121988 16.3000 -83.4000 TS 35 1004 0 14 318
1988323N15286 1988 107 NA CS KEITH 1988-11-20 09:00:00 TS 16.9902 -83.9419 main 140 138 P_____________ AL121988 16.9902 -83.9419 TS 37 1003 0 18 325
1988323N15286 1988 107 NA CS KEITH 1988-11-20 12:00:00 TS 17.8000 -84.5000 40 1002 hurdat_atl main 213 213 O_____________ hurdat_atl AL121988 17.8000 -84.5000 TS 40 1002 0 18 327
1988323N15286 1988 107 NA CS KEITH 1988-11-20 15:00:00 TS 18.5098 -84.9801 main 274 214 P_____________ AL121988 18.5098 -84.9801 TS 42 999 0 16 327
1988323N15286 1988 107 NA CS KEITH 1988-11-20 18:00:00 TS 19.1000 -85.4000 45 997 hurdat_atl main 214 167 O_____________ hurdat_atl AL121988 19.1000 -85.4000 TS 45 997 0 12 322
1988323N15286 1988 107 NA CS KEITH 1988-11-20 21:00:00 TS 19.4799 -85.7805 main 167 138 P_____________ AL121988 19.4799 -85.7805 TS 52 991 0 10 317
1988323N15286 1988 107 NA CS KEITH 1988-11-21 00:00:00 TS 19.8000 -86.1000 60 985 hurdat_atl main 139 100 O_____________ hurdat_atl AL121988 19.8000 -86.1000 TS 60 985 0 9 322
1988323N15286 1988 107 NA CS KEITH 1988-11-21 03:00:00 TS 20.1671 -86.3517 main 84 33 P_____________ AL121988 20.1671 -86.3517 TS 60 989 0 10 332
1988323N15286 1988 107 NA CS KEITH 1988-11-21 06:00:00 TS 20.7000 -86.6000 60 993 hurdat_atl main 33 0 O_____________ hurdat_atl AL121988 20.7000 -86.6000 TS 60 993 0 13 338
1988323N15286 1988 107 NA CS KEITH 1988-11-21 08:00:00 TS 21.2000 -86.8000 60 993 hurdat_atl main 0 0 O_____________ hurdat_atl AL121988 21.2000 -86.8000 L TS 60 993 0 15 340
1988323N15286 1988 107 NA NA KEITH 1988-11-21 09:00:00 TS 21.3955 -86.8720 main 0 0 P_____________ AL121988 21.3955 -86.8720 TS 60 993 0 9 343
1988323N15286 1988 107 NA GM KEITH 1988-11-21 12:00:00 TS 21.8000 -87.0000 60 993 hurdat_atl main 33 33 O_____________ hurdat_atl AL121988 21.8000 -87.0000 TS 60 993 0 8 341
1988323N15286 1988 107 NA GM KEITH 1988-11-21 15:00:00 TS 22.1203 -87.1375 main 67 67 P_____________ AL121988 22.1203 -87.1375 TS 60 991 0 6 343
1988323N15286 1988 107 NA GM KEITH 1988-11-21 18:00:00 TS 22.4000 -87.2000 60 990 hurdat_atl main 101 101 O_____________ hurdat_atl AL121988 22.4000 -87.2000 TS 60 990 0 6 0
1988323N15286 1988 107 NA GM KEITH 1988-11-21 21:00:00 TS 22.7425 -87.1302 main 134 134 P_____________ AL121988 22.7425 -87.1302 TS 60 991 0 7 15
1988323N15286 1988 107 NA GM KEITH 1988-11-22 00:00:00 TS 23.1000 -87.0000 60 993 hurdat_atl main 178 178 O_____________ hurdat_atl AL121988 23.1000 -87.0000 TS 60 993 0 7 14
1988323N15286 1988 107 NA GM KEITH 1988-11-22 03:00:00 TS 23.4574 -86.9297 main 223 223 P_____________ AL121988 23.4574 -86.9297 TS 57 994 0 7 15
1988323N15286 1988 107 NA GM KEITH 1988-11-22 06:00:00 TS 23.8000 -86.8000 55 995 hurdat_atl main 257 257 O_____________ hurdat_atl AL121988 23.8000 -86.8000 TS 55 995 0 7 28
1988323N15286 1988 107 NA GM KEITH 1988-11-22 09:00:00 TS 24.0698 -86.5668 main 293 289 P_____________ AL121988 24.0698 -86.5668 TS 55 995 0 8 42
1988323N15286 1988 107 NA GM KEITH 1988-11-22 12:00:00 TS 24.4000 -86.2000 55 995 hurdat_atl main 293 286 O_____________ hurdat_atl AL121988 24.4000 -86.2000 TS 55 995 0 12 44
1988323N15286 1988 107 NA GM KEITH 1988-11-22 15:00:00 TS 24.9203 -85.6731 main 300 298 P_____________ AL121988 24.9203 -85.6731 TS 55 994 0 15 42
1988323N15286 1988 107 NA GM KEITH 1988-11-22 18:00:00 TS 25.5000 -85.1000 55 993 hurdat_atl main 314 254 O_____________ hurdat_atl AL121988 25.5000 -85.1000 TS 55 993 0 14 39
1988323N15286 1988 107 NA GM KEITH 1988-11-22 21:00:00 TS 26.0218 -84.6716 main 254 181 P_____________ AL121988 26.0218 -84.6716 TS 55 993 0 13 39
1988323N15286 1988 107 NA GM KEITH 1988-11-23 00:00:00 TS 26.5000 -84.2000 55 994 hurdat_atl main 181 95 O_____________ hurdat_atl AL121988 26.5000 -84.2000 TS 55 994 0 14 46
1988323N15286 1988 107 NA GM KEITH 1988-11-23 03:00:00 TS 27.0204 -83.5039 main 95 19 P_____________ AL121988 27.0204 -83.5039 TS 55 994 0 15 57
1988323N15286 1988 107 NA GM KEITH 1988-11-23 06:00:00 TS 27.3000 -82.8000 55 995 hurdat_atl main 19 0 O_____________ hurdat_atl AL121988 27.3000 -82.8000 TS 55 995 0 13 71
1988323N15286 1988 107 NA GM KEITH 1988-11-23 07:00:00 TS 27.3000 -82.6000 55 995 hurdat_atl main 0 0 O_____________ hurdat_atl AL121988 27.3000 -82.6000 L TS 55 995 0 12 77
1988323N15286 1988 107 NA NA KEITH 1988-11-23 09:00:00 TS 27.4448 -82.1205 main 0 0 P_____________ AL121988 27.4448 -82.1205 TS 47 996 0 16 63
1988323N15286 1988 107 NA NA KEITH 1988-11-23 12:00:00 TS 27.9000 -81.3000 35 999 hurdat_atl main 0 0 O_____________ hurdat_atl AL121988 27.9000 -81.3000 TS 35 999 0 17 55
1988323N15286 1988 107 NA NA KEITH 1988-11-23 15:00:00 TS 28.3903 -80.5884 main 0 0 P_____________ AL121988 28.3903 -80.5884 TS 37 998 0 17 53
1988323N15286 1988 107 NA NA KEITH 1988-11-23 18:00:00 TS 28.9000 -79.8000 40 998 hurdat_atl main 81 81 O_____________ hurdat_atl AL121988 28.9000 -79.8000 TS 40 998 0 18 60
1988323N15286 1988 107 NA NA KEITH 1988-11-23 21:00:00 TS 29.2769 -78.8225 main 187 187 P_____________ AL121988 29.2769 -78.8225 TS 45 996 0 20 66
1988323N15286 1988 107 NA NA KEITH 1988-11-24 00:00:00 TS 29.7000 -77.7000 50 995 hurdat_atl main 302 302 O_____________ hurdat_atl AL121988 29.7000 -77.7000 TS 50 995 0 22 62
1988323N15286 1988 107 NA NA KEITH 1988-11-24 03:00:00 TS 30.2911 -76.6400 main 400 398 P_____________ AL121988 30.2911 -76.6400 TS 52 993 0 25 59
1988323N15286 1988 107 NA NA KEITH 1988-11-24 06:00:00 TS 31.0000 -75.2000 55 992 hurdat_atl main 416 416 O_____________ hurdat_atl AL121988 31.0000 -75.2000 TS 55 992 0 34 65
1988323N15286 1988 107 NA NA KEITH 1988-11-24 09:00:00 TS 31.7393 -73.0004 main 466 464 P_____________ AL121988 31.7393 -73.0004 TS 57 991 0 43 69
1988323N15286 1988 107 NA NA KEITH 1988-11-24 12:00:00 TS 32.5000 -70.5000 60 990 hurdat_atl main 588 588 O_____________ hurdat_atl AL121988 32.5000 -70.5000 TS 60 990 0 42 70
1988323N15286 1988 107 NA NA KEITH 1988-11-24 15:00:00 TS 33.2012 -68.3357 main 719 719 P_____________ AL121988 33.2012 -68.3357 TS 57 987 0 40 68
1988323N15286 1988 107 NA NA KEITH 1988-11-24 18:00:00 ET 34.0000 -66.0000 55 985 hurdat_atl main 887 887 O_____________ hurdat_atl AL121988 34.0000 -66.0000 EX 55 985 -4 47 69
1988323N15286 1988 107 NA NA KEITH 1988-11-24 21:00:00 ET 34.8887 -63.1023 main 965 946 P_____________ AL121988 34.8887 -63.1023 EX 52 983 -4 53 68
1988323N15286 1988 107 NA NA KEITH 1988-11-25 00:00:00 ET 36.0000 -60.0000 50 982 hurdat_atl main 948 918 O_____________ hurdat_atl AL121988 36.0000 -60.0000 EX 50 982 -4 56 62
1988323N15286 1988 107 NA NA KEITH 1988-11-25 03:00:00 ET 37.5724 -56.9441 main 914 857 P_____________ AL121988 37.5724 -56.9441 EX 50 979 -4 56 58
1988323N15286 1988 107 NA NA KEITH 1988-11-25 06:00:00 ET 39.0000 -54.0000 50 976 hurdat_atl main 845 807 O_____________ hurdat_atl AL121988 39.0000 -54.0000 EX 50 976 -4 48 67
1988323N15286 1988 107 NA NA KEITH 1988-11-25 09:00:00 ET 39.4188 -51.3087 main 815 809 P_____________ AL121988 39.4188 -51.3087 EX 50 970 -4 40 75
1988323N15286 1988 107 NA NA KEITH 1988-11-25 12:00:00 ET 40.0000 -49.0000 50 964 hurdat_atl main 807 739 O_____________ hurdat_atl AL121988 40.0000 -49.0000 EX 50 964 -4 42 56
1988323N15286 1988 107 NA NA KEITH 1988-11-25 15:00:00 ET 41.7742 -46.7951 main 736 692 P_____________ AL121988 41.7742 -46.7951 EX 52 962 -4 50 37
1988323N15286 1988 107 NA NA KEITH 1988-11-25 18:00:00 ET 44.0000 -45.0000 55 960 hurdat_atl main 695 687 O_____________ hurdat_atl AL121988 44.0000 -45.0000 EX 55 960 -4 47 27
1988323N15286 1988 107 NA NA KEITH 1988-11-25 21:00:00 ET 45.9946 -43.7616 main 687 687 P_____________ AL121988 45.9946 -43.7616 EX 60 955 -4 42 19
1988323N15286 1988 107 NA NA KEITH 1988-11-26 00:00:00 ET 48.0000 -43.0000 65 950 hurdat_atl main 716 716 O_____________ hurdat_atl AL121988 48.0000 -43.0000 EX 65 950 -4 44 14
1988323N15286 1988 107 NA NA KEITH 1988-11-26 03:00:00 ET 50.2598 -42.2060 main 802 802 P_____________ AL121988 50.2598 -42.2060 EX 65 947 -4 40 9
1988323N15286 1988 107 NA NA KEITH 1988-11-26 06:00:00 ET 52.0000 -42.0000 65 945 hurdat_atl main 859 827 O_____________ hurdat_atl AL121988 52.0000 -42.0000 EX 65 945 -4 24 352
1988323N15286 1988 107 NA NA KEITH 1988-11-26 09:00:00 ET 52.5888 -42.7656 main 827 757 P_____________ AL121988 52.5888 -42.7656 EX 65 945 -4 13 292
1988323N15286 1988 107 NA NA KEITH 1988-11-26 12:00:00 ET 52.5000 -44.0000 65 945 hurdat_atl main 751 680 O_____________ hurdat_atl AL121988 52.5000 -44.0000 EX 65 945 -4 14 257
1988323N15286 1988 107 NA NA KEITH 1988-11-26 15:00:00 ET 52.2621 -45.0791 main 674 605 P_____________ AL121988 52.2621 -45.0791 EX 65 947 -4 13 248
1988323N15286 1988 107 NA NA KEITH 1988-11-26 18:00:00 ET 52.0000 -46.0000 65 950 hurdat_atl main 605 O_____________ hurdat_atl AL121988 52.0000 -46.0000 EX 65 950 -4 12 245

IBTrACS Databaseについて

本データベースは、米国NOAAが公開する1842年以降の世界の熱帯低気圧のベストトラックデータアーカイブInternational Best Track Archive for Climate Stewardship (IBTrACS)を、ウェブで閲覧しやすい形式に変換したものです。

最終更新日:2021-10-21